createdAt,value
2023-01-04T00:00:24.377Z,93
2023-01-04T00:01:10.252Z,93
2023-01-04T00:01:56.259Z,93
2023-01-04T00:02:42.433Z,93
2023-01-04T00:03:28.499Z,93
2023-01-04T00:04:14.220Z,93
2023-01-04T00:05:00.282Z,93
2023-01-04T00:05:46.311Z,93
2023-01-04T00:06:32.253Z,93
2023-01-04T00:07:17.568Z,93
2023-01-04T00:08:04.256Z,93
2023-01-04T00:08:50.290Z,93
2023-01-04T00:09:36.251Z,93
2023-01-04T00:10:21.574Z,93
2023-01-04T00:11:08.426Z,93
2023-01-04T00:11:54.295Z,93
2023-01-04T00:12:40.234Z,93
2023-01-04T00:13:26.286Z,93
2023-01-04T00:14:12.296Z,93
2023-01-04T00:14:58.395Z,93
2023-01-04T00:15:44.398Z,93
2023-01-04T00:16:30.346Z,93
2023-01-04T00:17:16.334Z,93
2023-01-04T00:18:02.379Z,93
2023-01-04T00:18:48.381Z,93
2023-01-04T00:19:34.355Z,94
2023-01-04T00:20:20.358Z,94
2023-01-04T00:21:06.309Z,94
2023-01-04T00:21:52.420Z,94
2023-01-04T00:22:38.276Z,94
2023-01-04T00:23:24.344Z,94
2023-01-04T00:24:10.290Z,94
2023-01-04T00:24:56.281Z,94
2023-01-04T00:25:42.375Z,94
2023-01-04T00:26:28.391Z,94
2023-01-04T00:27:14.296Z,94
2023-01-04T00:28:00.342Z,94
2023-01-04T00:28:53.590Z,94
2023-01-04T00:29:32.287Z,94
2023-01-04T00:30:18.980Z,94
2023-01-04T00:31:04.494Z,94
2023-01-04T00:31:50.480Z,94
2023-01-04T00:32:36.318Z,94
2023-01-04T00:33:22.464Z,94
2023-01-04T00:34:08.301Z,94
2023-01-04T00:34:54.372Z,94
2023-01-04T00:35:46.208Z,94
2023-01-04T00:36:26.326Z,94
2023-01-04T00:37:12.317Z,94
2023-01-04T00:37:58.371Z,94
2023-01-04T00:38:44.384Z,94
2023-01-04T00:39:30.345Z,94
2023-01-04T00:40:16.363Z,94
2023-01-04T00:41:02.315Z,94
2023-01-04T00:41:58.634Z,94
2023-01-04T00:42:34.355Z,94
2023-01-04T00:43:20.390Z,94
2023-01-04T00:44:06.348Z,94
2023-01-04T00:44:52.386Z,94
2023-01-04T00:45:38.395Z,94
2023-01-04T00:46:24.426Z,94
2023-01-04T00:47:10.356Z,94
2023-01-04T00:47:56.321Z,94
2023-01-04T00:48:47.651Z,94
2023-01-04T00:49:28.411Z,94
2023-01-04T00:50:14.411Z,94
2023-01-04T00:51:00.379Z,94
2023-01-04T00:51:46.357Z,94
2023-01-04T00:52:32.438Z,94
2023-01-04T00:53:18.785Z,94
2023-01-04T00:54:04.420Z,94
2023-01-04T00:54:50.420Z,94
2023-01-04T00:55:36.484Z,94
2023-01-04T00:56:22.460Z,94
2023-01-04T00:57:08.340Z,94
2023-01-04T00:57:54.398Z,94
2023-01-04T00:58:40.361Z,95
2023-01-04T00:59:25.679Z,95
2023-01-04T01:00:12.473Z,95
2023-01-04T01:00:58.467Z,95
2023-01-04T01:01:44.456Z,95
2023-01-04T01:02:30.598Z,95
2023-01-04T01:03:16.522Z,95
2023-01-04T01:04:02.428Z,95
2023-01-04T01:04:48.431Z,95
2023-01-04T01:05:34.422Z,95
2023-01-04T01:06:20.430Z,95
2023-01-04T01:07:06.387Z,95
2023-01-04T01:07:52.487Z,95
2023-01-04T01:08:38.410Z,95
2023-01-04T01:09:24.441Z,95
2023-01-04T01:10:10.531Z,95
2023-01-04T01:10:56.542Z,95
2023-01-04T01:11:42.414Z,95
2023-01-04T01:12:28.506Z,95
2023-01-04T01:13:14.438Z,95
2023-01-04T01:14:00.478Z,95
2023-01-04T01:14:46.498Z,95
2023-01-04T01:15:32.639Z,95
2023-01-04T01:16:27.343Z,95
2023-01-04T01:17:04.575Z,95
2023-01-04T01:17:50.521Z,95
2023-01-04T01:18:36.568Z,95
2023-01-04T01:19:22.571Z,95
2023-01-04T01:20:08.461Z,95
2023-01-04T01:20:54.523Z,95
2023-01-04T01:21:40.529Z,95
2023-01-04T01:22:26.467Z,95
2023-01-04T01:23:12.467Z,95
2023-01-04T01:23:58.515Z,95
2023-01-04T01:24:44.545Z,95
2023-01-04T01:25:30.510Z,95
2023-01-04T01:26:16.605Z,95
2023-01-04T01:27:02.528Z,95
2023-01-04T01:27:48.546Z,95
2023-01-04T01:28:34.580Z,95
2023-01-04T01:29:20.578Z,95
2023-01-04T01:30:06.555Z,95
2023-01-04T01:30:52.606Z,95
2023-01-04T01:31:38.683Z,95
2023-01-04T01:32:24.570Z,95
2023-01-04T01:33:10.649Z,95
2023-01-04T01:33:56.526Z,95
2023-01-04T01:34:42.537Z,95
2023-01-04T01:35:28.615Z,95
2023-01-04T01:36:14.574Z,95
2023-01-04T01:37:00.602Z,95
2023-01-04T01:37:46.577Z,95
2023-01-04T01:38:32.550Z,95
2023-01-04T01:39:18.858Z,95
2023-01-04T01:40:04.569Z,95
2023-01-04T01:40:50.582Z,95
2023-01-04T01:41:36.576Z,95
2023-01-04T01:42:22.644Z,95
2023-01-04T01:43:08.662Z,95
2023-01-04T01:43:54.660Z,95
2023-01-04T01:44:40.774Z,95
2023-01-04T01:45:26.686Z,95
2023-01-04T01:46:12.627Z,95
2023-01-04T01:46:58.656Z,95
2023-01-04T01:47:44.607Z,95
2023-01-04T01:48:30.600Z,95
2023-01-04T01:49:16.594Z,95
2023-01-04T01:50:02.673Z,95
2023-01-04T01:50:48.701Z,95
2023-01-04T01:51:34.686Z,95
2023-01-04T01:52:20.651Z,95
2023-01-04T01:53:06.660Z,95
2023-01-04T01:53:52.737Z,95
2023-01-04T01:54:38.705Z,95
2023-01-04T01:55:24.652Z,95
2023-01-04T01:56:10.709Z,95
2023-01-04T01:56:56.654Z,95
2023-01-04T01:57:42.697Z,96
2023-01-04T01:58:28.736Z,96
2023-01-04T01:59:14.726Z,96
2023-01-04T02:00:00.839Z,96
2023-01-04T02:00:46.694Z,96
2023-01-04T02:01:32.727Z,96
2023-01-04T02:02:19.210Z,96
2023-01-04T02:03:04.989Z,96
2023-01-04T02:03:50.733Z,96
2023-01-04T02:04:36.641Z,96
2023-01-04T02:05:22.746Z,96
2023-01-04T02:06:08.721Z,96
2023-01-04T02:06:54.707Z,96
2023-01-04T02:07:40.782Z,96
2023-01-04T02:08:26.699Z,96
2023-01-04T02:09:12.692Z,96
2023-01-04T02:09:58.757Z,96
2023-01-04T02:10:44.796Z,96
2023-01-04T02:11:30.734Z,96
2023-01-04T02:12:16.721Z,96
2023-01-04T02:13:02.740Z,96
2023-01-04T02:13:48.774Z,96
2023-01-04T02:14:34.798Z,96
2023-01-04T02:15:20.885Z,96
2023-01-04T02:16:06.890Z,96
2023-01-04T02:16:52.850Z,96
2023-01-04T02:17:38.814Z,96
2023-01-04T02:18:24.764Z,96
2023-01-04T02:19:10.793Z,96
2023-01-04T02:19:56.734Z,96
2023-01-04T02:20:42.769Z,96
2023-01-04T02:21:28.777Z,96
2023-01-04T02:22:14.820Z,96
2023-01-04T02:23:00.839Z,96
2023-01-04T02:23:46.864Z,96
2023-01-04T02:24:32.775Z,96
2023-01-04T02:25:18.981Z,96
2023-01-04T02:26:04.765Z,96
2023-01-04T02:26:50.788Z,96
2023-01-04T02:27:36.857Z,96
2023-01-04T02:28:22.818Z,96
2023-01-04T02:29:08.857Z,96
2023-01-04T02:29:54.809Z,96
2023-01-04T02:30:40.848Z,96
2023-01-04T02:31:26.942Z,96
2023-01-04T02:32:12.928Z,96
2023-01-04T02:32:58.884Z,96
2023-01-04T02:33:44.843Z,96
2023-01-04T02:34:30.873Z,96
2023-01-04T02:35:16.902Z,96
2023-01-04T02:36:02.880Z,96
2023-01-04T02:36:48.838Z,96
2023-01-04T02:37:34.937Z,96
2023-01-04T02:38:20.912Z,96
2023-01-04T02:39:06.864Z,96
2023-01-04T02:39:52.888Z,96
2023-01-04T02:40:38.918Z,96
2023-01-04T02:41:24.940Z,96
2023-01-04T02:42:10.994Z,96
2023-01-04T02:42:56.860Z,96
2023-01-04T02:43:42.844Z,96
2023-01-04T02:44:28.922Z,96
2023-01-04T02:45:14.998Z,96
2023-01-04T02:46:00.899Z,95
2023-01-04T02:46:46.989Z,95
2023-01-04T02:47:32.955Z,95
2023-01-04T02:48:19.157Z,95
2023-01-04T02:49:05.000Z,95
2023-01-04T02:49:50.897Z,95
2023-01-04T02:50:36.971Z,95
2023-01-04T02:51:22.944Z,95
2023-01-04T02:52:08.965Z,95
2023-01-04T02:52:54.970Z,95
2023-01-04T02:53:40.938Z,95
2023-01-04T02:54:26.858Z,95
2023-01-04T02:55:12.876Z,95
2023-01-04T02:55:58.944Z,95
2023-01-04T02:56:44.952Z,95
2023-01-04T02:57:30.938Z,95
2023-01-04T02:58:17.013Z,95
2023-01-04T02:59:02.911Z,95
2023-01-04T02:59:49.028Z,95
2023-01-04T03:00:35.466Z,95
2023-01-04T03:01:21.154Z,95
2023-01-04T03:02:07.342Z,95
2023-01-04T03:02:53.293Z,95
2023-01-04T03:03:39.092Z,95
2023-01-04T03:04:24.939Z,95
2023-01-04T03:05:11.029Z,94
2023-01-04T03:05:56.968Z,94
2023-01-04T03:06:43.054Z,94
2023-01-04T03:07:28.961Z,94
2023-01-04T03:08:15.017Z,94
2023-01-04T03:09:00.985Z,94
2023-01-04T03:09:47.001Z,94
2023-01-04T03:10:32.955Z,94
2023-01-04T03:11:19.045Z,94
2023-01-04T03:12:05.136Z,94
2023-01-04T03:12:50.989Z,94
2023-01-04T03:13:37.007Z,94
2023-01-04T03:14:31.800Z,94
2023-01-04T03:15:09.148Z,94
2023-01-04T03:15:55.059Z,94
2023-01-04T03:16:41.127Z,94
2023-01-04T03:17:27.068Z,94
2023-01-04T03:18:12.985Z,94
2023-01-04T03:18:59.053Z,93
2023-01-04T03:19:45.128Z,93
2023-01-04T03:20:31.018Z,93
2023-01-04T03:21:17.079Z,93
2023-01-04T03:22:03.170Z,93
2023-01-04T03:22:49.091Z,92
2023-01-04T03:23:35.198Z,92
2023-01-04T03:24:21.012Z,92
2023-01-04T03:25:07.120Z,92
2023-01-04T03:25:53.123Z,92
2023-01-04T03:26:39.179Z,92
2023-01-04T03:27:25.041Z,92
2023-01-04T03:28:11.128Z,92
2023-01-04T03:28:57.075Z,92
2023-01-04T03:29:43.078Z,92
2023-01-04T03:30:29.186Z,91
2023-01-04T03:31:15.227Z,91
2023-01-04T03:32:01.112Z,91
2023-01-04T03:32:47.144Z,91
2023-01-04T03:33:33.059Z,91
2023-01-04T03:34:19.300Z,91
2023-01-04T03:35:05.251Z,91
2023-01-04T03:35:51.044Z,91
2023-01-04T03:36:37.171Z,91
2023-01-04T03:37:23.192Z,91
2023-01-04T03:38:09.167Z,91
2023-01-04T03:38:55.218Z,91
2023-01-04T03:39:41.161Z,90
2023-01-04T03:40:27.130Z,90
2023-01-04T03:41:13.201Z,90
2023-01-04T03:41:59.099Z,90
2023-01-04T03:42:45.138Z,90
2023-01-04T03:43:31.174Z,90
2023-01-04T03:44:17.202Z,90
2023-01-04T03:45:09.704Z,90
2023-01-04T03:45:49.104Z,90
2023-01-04T03:46:35.361Z,90
2023-01-04T03:47:21.150Z,90
2023-01-04T03:48:07.194Z,90
2023-01-04T03:48:53.258Z,90
2023-01-04T03:49:39.234Z,90
2023-01-04T03:50:25.152Z,90
2023-01-04T03:51:11.147Z,89
2023-01-04T03:51:57.122Z,89
2023-01-04T03:52:43.110Z,89
2023-01-04T03:53:29.107Z,89
2023-01-04T03:54:15.104Z,89
2023-01-04T03:55:01.119Z,89
2023-01-04T03:55:47.282Z,89
2023-01-04T03:56:33.135Z,89
2023-01-04T03:57:19.169Z,89
2023-01-04T03:58:05.285Z,89
2023-01-04T03:58:51.142Z,89
2023-01-04T03:59:37.165Z,90
2023-01-04T04:00:23.322Z,89
2023-01-04T04:01:09.342Z,89
2023-01-04T04:01:55.278Z,89
2023-01-04T04:02:41.192Z,89
2023-01-04T04:03:27.182Z,89
2023-01-04T04:04:13.203Z,89
2023-01-04T04:04:59.218Z,89
2023-01-04T04:05:45.238Z,89
2023-01-04T04:06:31.171Z,89
2023-01-04T04:07:17.221Z,89
2023-01-04T04:08:03.187Z,89
2023-01-04T04:08:49.220Z,89
2023-01-04T04:09:35.389Z,89
2023-01-04T04:10:21.211Z,89
2023-01-04T04:11:07.255Z,89
2023-01-04T04:11:53.197Z,89
2023-01-04T04:12:39.248Z,89
2023-01-04T04:13:25.175Z,89
2023-01-04T04:14:11.236Z,89
2023-01-04T04:14:57.220Z,89
2023-01-04T04:15:43.243Z,89
2023-01-04T04:16:29.359Z,89
2023-01-04T04:17:15.293Z,89
2023-01-04T04:18:01.341Z,89
2023-01-04T04:18:47.258Z,89
2023-01-04T04:19:33.254Z,89
2023-01-04T04:20:19.281Z,89
2023-01-04T04:21:05.426Z,89
2023-01-04T04:21:51.252Z,89
2023-01-04T04:22:37.281Z,90
2023-01-04T04:23:23.243Z,90
2023-01-04T04:24:09.267Z,90
2023-01-04T04:24:55.280Z,90
2023-01-04T04:25:41.365Z,90
2023-01-04T04:26:27.292Z,90
2023-01-04T04:27:13.239Z,90
2023-01-04T04:27:59.286Z,90
2023-01-04T04:28:45.312Z,90
2023-01-04T04:29:31.278Z,90
2023-01-04T04:30:17.426Z,90
2023-01-04T04:31:03.257Z,90
2023-01-04T04:31:49.461Z,90
2023-01-04T04:32:35.631Z,90
2023-01-04T04:33:21.334Z,90
2023-01-04T04:34:07.272Z,90
2023-01-04T04:34:53.400Z,90
2023-01-04T04:35:39.331Z,90
2023-01-04T04:36:25.369Z,90
2023-01-04T04:37:11.326Z,90
2023-01-04T04:37:57.322Z,90
2023-01-04T04:38:43.360Z,90
2023-01-04T04:39:29.297Z,90
2023-01-04T04:40:15.407Z,90
2023-01-04T04:41:01.398Z,90
2023-01-04T04:41:47.385Z,90
2023-01-04T04:42:33.312Z,90
2023-01-04T04:43:19.379Z,90
2023-01-04T04:44:05.530Z,90
2023-01-04T04:44:51.328Z,90
2023-01-04T04:45:37.463Z,90
2023-01-04T04:46:23.406Z,90
2023-01-04T04:47:09.460Z,90
2023-01-04T04:47:55.377Z,90
2023-01-04T04:48:41.383Z,90
2023-01-04T04:49:27.369Z,90
2023-01-04T04:50:13.364Z,90
2023-01-04T04:50:59.362Z,90
2023-01-04T04:51:45.451Z,90
2023-01-04T04:52:31.462Z,90
2023-01-04T04:53:17.392Z,90
2023-01-04T04:54:03.384Z,90
2023-01-04T04:54:49.426Z,90
2023-01-04T04:55:35.543Z,90
2023-01-04T04:56:21.378Z,90
2023-01-04T04:57:07.410Z,90
2023-01-04T04:57:53.423Z,90
2023-01-04T04:58:39.840Z,90
2023-01-04T04:59:25.430Z,90
2023-01-04T05:00:11.471Z,90
2023-01-04T05:00:57.585Z,90
2023-01-04T05:01:43.551Z,91
2023-01-04T05:02:29.616Z,91
2023-01-04T05:03:15.576Z,91
2023-01-04T05:04:01.862Z,91
2023-01-04T05:04:47.466Z,91
2023-01-04T05:05:33.449Z,91
2023-01-04T05:06:19.516Z,91
2023-01-04T05:07:12.082Z,91
2023-01-04T05:07:51.515Z,91
2023-01-04T05:08:37.515Z,91
2023-01-04T05:09:23.447Z,91
2023-01-04T05:10:09.475Z,90
2023-01-04T05:10:55.532Z,91
2023-01-04T05:11:41.518Z,91
2023-01-04T05:12:27.520Z,91
2023-01-04T05:13:13.528Z,91
2023-01-04T05:13:59.538Z,91
2023-01-04T05:14:45.468Z,91
2023-01-04T05:15:31.613Z,91
2023-01-04T05:16:17.638Z,91
2023-01-04T05:17:03.828Z,90
2023-01-04T05:17:49.519Z,90
2023-01-04T05:18:35.720Z,90
2023-01-04T05:19:21.474Z,90
2023-01-04T05:20:07.506Z,90
2023-01-04T05:20:53.496Z,90
2023-01-04T05:21:39.524Z,90
2023-01-04T05:22:25.571Z,90
2023-01-04T05:23:11.567Z,90
2023-01-04T05:23:57.598Z,90
2023-01-04T05:24:43.557Z,90
2023-01-04T05:25:29.516Z,90
2023-01-04T05:26:15.563Z,90
2023-01-04T05:27:01.605Z,90
2023-01-04T05:27:47.713Z,90
2023-01-04T05:28:33.517Z,90
2023-01-04T05:29:19.555Z,90
2023-01-04T05:30:05.784Z,90
2023-01-04T05:30:51.651Z,90
2023-01-04T05:31:37.600Z,90
2023-01-04T05:32:23.719Z,91
2023-01-04T05:33:09.765Z,90
2023-01-04T05:33:55.631Z,90
2023-01-04T05:34:41.591Z,90
2023-01-04T05:35:27.610Z,90
2023-01-04T05:36:13.601Z,91
2023-01-04T05:36:59.567Z,91
2023-01-04T05:37:45.600Z,91
2023-01-04T05:38:31.721Z,91
2023-01-04T05:39:17.643Z,91
2023-01-04T05:40:03.670Z,91
2023-01-04T05:40:49.734Z,91
2023-01-04T05:41:35.788Z,91
2023-01-04T05:42:21.600Z,91
2023-01-04T05:43:07.579Z,91
2023-01-04T05:43:53.627Z,91
2023-01-04T05:44:39.573Z,91
2023-01-04T05:45:25.719Z,91
2023-01-04T05:46:11.708Z,91
2023-01-04T05:46:57.609Z,91
2023-01-04T05:47:43.640Z,91
2023-01-04T05:48:29.651Z,91
2023-01-04T05:49:15.612Z,91
2023-01-04T05:50:01.684Z,91
2023-01-04T05:50:47.746Z,91
2023-01-04T05:51:33.578Z,91
2023-01-04T05:52:19.607Z,91
2023-01-04T05:53:05.832Z,91
2023-01-04T05:53:51.608Z,91
2023-01-04T05:54:37.606Z,91
2023-01-04T05:55:23.606Z,91
2023-01-04T05:56:09.636Z,91
2023-01-04T05:56:55.647Z,91
2023-01-04T05:57:41.663Z,91
2023-01-04T05:58:27.612Z,91
2023-01-04T05:59:13.696Z,91
2023-01-04T05:59:59.647Z,91
2023-01-04T06:00:45.728Z,91
2023-01-04T06:01:31.721Z,91
2023-01-04T06:02:17.908Z,91
2023-01-04T06:03:03.988Z,91
2023-01-04T06:03:49.886Z,91
2023-01-04T06:04:35.860Z,91
2023-01-04T06:05:21.723Z,91
2023-01-04T06:06:07.650Z,91
2023-01-04T06:06:53.642Z,91
2023-01-04T06:07:39.766Z,91
2023-01-04T06:08:25.678Z,91
2023-01-04T06:09:11.693Z,91
2023-01-04T06:09:57.688Z,91
2023-01-04T06:10:43.727Z,91
2023-01-04T06:11:29.675Z,91
2023-01-04T06:12:15.692Z,91
2023-01-04T06:13:01.723Z,91
2023-01-04T06:13:47.784Z,90
2023-01-04T06:14:33.692Z,90
2023-01-04T06:15:19.713Z,90
2023-01-04T06:16:05.892Z,90
2023-01-04T06:16:51.912Z,90
2023-01-04T06:17:37.742Z,90
2023-01-04T06:18:23.706Z,90
2023-01-04T06:19:09.694Z,90
2023-01-04T06:19:55.755Z,90
2023-01-04T06:20:41.698Z,90
2023-01-04T06:21:27.717Z,90
2023-01-04T06:22:13.789Z,90
2023-01-04T06:22:59.683Z,90
2023-01-04T06:23:45.687Z,90
2023-01-04T06:24:31.766Z,90
2023-01-04T06:25:17.763Z,90
2023-01-04T06:26:03.831Z,90
2023-01-04T06:26:49.696Z,90
2023-01-04T06:27:35.949Z,90
2023-01-04T06:28:21.691Z,89
2023-01-04T06:29:07.718Z,89
2023-01-04T06:29:53.698Z,89
2023-01-04T06:30:39.835Z,89
2023-01-04T06:31:25.802Z,89
2023-01-04T06:32:11.725Z,89
2023-01-04T06:32:57.767Z,89
2023-01-04T06:33:43.735Z,89
2023-01-04T06:34:31.429Z,89
2023-01-04T06:35:15.861Z,89
2023-01-04T06:36:02.000Z,89
2023-01-04T06:36:47.796Z,89
2023-01-04T06:37:33.731Z,89
2023-01-04T06:38:19.767Z,89
2023-01-04T06:39:05.957Z,89
2023-01-04T06:39:51.766Z,88
2023-01-04T06:40:37.722Z,88
2023-01-04T06:41:23.712Z,88
2023-01-04T06:42:09.725Z,88
2023-01-04T06:42:55.739Z,88
2023-01-04T06:43:41.747Z,88
2023-01-04T06:44:27.729Z,88
2023-01-04T06:45:13.884Z,88
2023-01-04T06:45:59.850Z,88
2023-01-04T06:46:45.772Z,88
2023-01-04T06:47:31.820Z,88
2023-01-04T06:48:18.678Z,88
2023-01-04T06:49:03.741Z,88
2023-01-04T06:49:49.833Z,88
2023-01-04T06:50:35.954Z,88
2023-01-04T06:51:21.753Z,88
2023-01-04T06:52:07.752Z,88
2023-01-04T06:52:53.789Z,89
2023-01-04T06:53:40.079Z,89
2023-01-04T06:54:25.811Z,89
2023-01-04T06:55:11.833Z,89
2023-01-04T06:55:57.735Z,89
2023-01-04T06:56:43.778Z,89
2023-01-04T06:57:29.776Z,89
2023-01-04T06:58:15.759Z,89
2023-01-04T06:59:01.817Z,89
2023-01-04T06:59:47.839Z,89
2023-01-04T07:00:33.933Z,89
2023-01-04T07:01:19.994Z,89
2023-01-04T07:02:06.235Z,89
2023-01-04T07:03:14.919Z,89
2023-01-04T07:03:37.771Z,89
2023-01-04T07:04:23.872Z,89
2023-01-04T07:05:09.830Z,89
2023-01-04T07:05:55.819Z,89
2023-01-04T07:06:41.860Z,89
2023-01-04T07:07:27.777Z,89
2023-01-04T07:08:13.886Z,89
2023-01-04T07:08:59.780Z,89
2023-01-04T07:09:45.786Z,89
2023-01-04T07:10:31.877Z,89
2023-01-04T07:11:17.908Z,89
2023-01-04T07:12:03.845Z,89
2023-01-04T07:12:49.826Z,89
2023-01-04T07:13:36.017Z,89
2023-01-04T07:14:21.795Z,89
2023-01-04T07:15:38.593Z,89
2023-01-04T07:15:53.856Z,89
2023-01-04T07:16:39.885Z,89
2023-01-04T07:17:29.844Z,89
2023-01-04T07:18:11.852Z,89
2023-01-04T07:18:57.955Z,89
2023-01-04T07:19:43.883Z,89
2023-01-04T07:20:29.976Z,89
2023-01-04T07:21:15.874Z,89
2023-01-04T07:22:02.058Z,89
2023-01-04T07:22:47.874Z,89
2023-01-04T07:23:33.885Z,89
2023-01-04T07:24:23.473Z,89
2023-01-04T07:25:06.018Z,89
2023-01-04T07:25:51.865Z,89
2023-01-04T07:26:37.867Z,89
2023-01-04T07:27:23.834Z,89
2023-01-04T07:28:09.835Z,89
2023-01-04T07:28:55.868Z,89
2023-01-04T07:29:41.902Z,89
2023-01-04T07:30:27.975Z,89
2023-01-04T07:31:13.960Z,89
2023-01-04T07:31:59.843Z,89
2023-01-04T07:32:45.837Z,89
2023-01-04T07:33:31.911Z,88
2023-01-04T07:34:18.057Z,88
2023-01-04T07:35:03.939Z,88
2023-01-04T07:35:49.881Z,88
2023-01-04T07:36:36.105Z,88
2023-01-04T07:37:21.973Z,88
2023-01-04T07:38:07.905Z,88
2023-01-04T07:38:53.892Z,88
2023-01-04T07:39:39.944Z,88
2023-01-04T07:40:25.954Z,88
2023-01-04T07:41:11.916Z,88
2023-01-04T07:41:57.870Z,88
2023-01-04T07:42:43.930Z,87
2023-01-04T07:43:29.913Z,87
2023-01-04T07:44:15.896Z,87
2023-01-04T07:45:02.123Z,88
2023-01-04T07:45:48.061Z,87
2023-01-04T07:46:34.064Z,87
2023-01-04T07:47:19.919Z,87
2023-01-04T07:48:06.045Z,87
2023-01-04T07:48:51.951Z,87
2023-01-04T07:49:37.918Z,87
2023-01-04T07:50:23.869Z,87
2023-01-04T07:51:10.010Z,87
2023-01-04T07:51:55.936Z,87
2023-01-04T07:52:41.927Z,87
2023-01-04T07:53:27.965Z,87
2023-01-04T07:54:14.091Z,87
2023-01-04T07:54:59.897Z,87
2023-01-04T07:55:46.099Z,87
2023-01-04T07:56:32.028Z,87
2023-01-04T07:57:18.583Z,87
2023-01-04T07:58:04.064Z,87
2023-01-04T07:58:50.014Z,87
2023-01-04T07:59:36.163Z,87
2023-01-04T08:00:22.114Z,87
2023-01-04T08:01:08.123Z,87
2023-01-04T08:01:54.218Z,87
2023-01-04T08:02:40.365Z,87
2023-01-04T08:03:26.056Z,87
2023-01-04T08:04:12.097Z,87
2023-01-04T08:04:58.024Z,87
2023-01-04T08:05:44.121Z,87
2023-01-04T08:06:30.002Z,87
2023-01-04T08:07:16.050Z,87
2023-01-04T08:08:02.230Z,87
2023-01-04T08:08:48.170Z,87
2023-01-04T08:09:34.061Z,88
2023-01-04T08:10:20.034Z,88
2023-01-04T08:11:06.151Z,88
2023-01-04T08:11:52.091Z,88
2023-01-04T08:12:38.056Z,88
2023-01-04T08:13:24.089Z,88
2023-01-04T08:14:10.046Z,88
2023-01-04T08:14:56.131Z,88
2023-01-04T08:15:42.239Z,88
2023-01-04T08:16:28.347Z,88
2023-01-04T08:17:14.154Z,88
2023-01-04T08:18:00.160Z,88
2023-01-04T08:18:46.115Z,88
2023-01-04T08:19:32.158Z,88
2023-01-04T08:20:18.517Z,88
2023-01-04T08:21:04.184Z,89
2023-01-04T08:21:50.110Z,89
2023-01-04T08:22:36.250Z,89
2023-01-04T08:23:22.106Z,89
2023-01-04T08:24:08.071Z,89
2023-01-04T08:24:54.085Z,89
2023-01-04T08:25:40.104Z,89
2023-01-04T08:26:26.174Z,89
2023-01-04T08:27:12.184Z,89
2023-01-04T08:27:58.151Z,89
2023-01-04T08:28:44.124Z,89
2023-01-04T08:29:34.701Z,89
2023-01-04T08:30:16.260Z,89
2023-01-04T08:31:02.187Z,89
2023-01-04T08:31:48.180Z,89
2023-01-04T08:32:34.281Z,89
2023-01-04T08:33:20.135Z,89
2023-01-04T08:34:06.164Z,89
2023-01-04T08:34:52.144Z,89
2023-01-04T08:35:38.087Z,89
2023-01-04T08:36:27.000Z,89
2023-01-04T08:37:10.118Z,89
2023-01-04T08:38:12.375Z,89
2023-01-04T08:38:58.603Z,90
2023-01-04T08:39:28.120Z,90
2023-01-04T08:40:14.233Z,90
2023-01-04T08:41:11.376Z,90
2023-01-04T08:41:58.357Z,90
2023-01-04T08:42:32.285Z,90
2023-01-04T08:43:18.881Z,90
2023-01-04T08:44:04.213Z,90
2023-01-04T08:44:52.961Z,90
2023-01-04T08:45:36.296Z,90
2023-01-04T08:46:22.191Z,90
2023-01-04T08:47:08.227Z,90
2023-01-04T08:47:54.138Z,90
2023-01-04T08:48:40.288Z,90
2023-01-04T08:49:26.208Z,90
2023-01-04T08:50:12.204Z,90
2023-01-04T08:50:58.594Z,90
2023-01-04T08:51:44.258Z,90
2023-01-04T08:52:30.144Z,90
2023-01-04T08:53:16.136Z,90
2023-01-04T08:54:02.185Z,90
2023-01-04T08:54:48.182Z,90
2023-01-04T08:55:34.241Z,90
2023-01-04T08:56:20.137Z,90
2023-01-04T08:57:06.394Z,90
2023-01-04T08:57:52.148Z,90
2023-01-04T08:58:38.177Z,90
2023-01-04T08:59:24.186Z,90
2023-01-04T09:00:10.373Z,90
2023-01-04T09:00:56.261Z,90
2023-01-04T09:01:42.304Z,90
2023-01-04T09:02:28.363Z,90
2023-01-04T09:03:14.296Z,90
2023-01-04T09:04:00.262Z,90
2023-01-04T09:04:46.276Z,90
2023-01-04T09:05:32.228Z,90
2023-01-04T09:06:18.666Z,90
2023-01-04T09:07:04.240Z,90
2023-01-04T09:07:50.190Z,90
2023-01-04T09:08:36.414Z,90
2023-01-04T09:09:22.204Z,90
2023-01-04T09:10:08.263Z,90
2023-01-04T09:10:54.228Z,90
2023-01-04T09:11:40.247Z,90
2023-01-04T09:12:26.249Z,90
2023-01-04T09:13:12.249Z,90
2023-01-04T09:14:06.298Z,90
2023-01-04T09:14:44.257Z,90
2023-01-04T09:15:30.270Z,90
2023-01-04T09:16:16.369Z,90
2023-01-04T09:17:02.318Z,90
2023-01-04T09:18:20.711Z,90
2023-01-04T09:18:34.361Z,90
2023-01-04T09:19:22.324Z,90
2023-01-04T09:20:06.275Z,90
2023-01-04T09:20:52.262Z,90
2023-01-04T09:21:38.321Z,90
2023-01-04T09:22:24.292Z,90
2023-01-04T09:23:10.337Z,90
2023-01-04T09:23:56.253Z,90
2023-01-04T09:24:42.249Z,90
2023-01-04T09:25:28.301Z,90
2023-01-04T09:26:14.345Z,90
2023-01-04T09:27:00.313Z,90
2023-01-04T09:27:46.255Z,90
2023-01-04T09:28:32.301Z,90
2023-01-04T09:29:18.759Z,90
2023-01-04T09:30:04.441Z,90
2023-01-04T09:30:50.251Z,90
2023-01-04T09:31:36.787Z,90
2023-01-04T09:32:22.259Z,90
2023-01-04T09:33:08.433Z,90
2023-01-04T09:34:16.055Z,90
2023-01-04T09:34:40.314Z,90
2023-01-04T09:35:26.270Z,90
2023-01-04T09:36:12.311Z,90
2023-01-04T09:36:58.278Z,90
2023-01-04T09:37:44.348Z,90
2023-01-04T09:38:30.288Z,90
2023-01-04T09:39:22.378Z,90
2023-01-04T09:40:02.275Z,90
2023-01-04T09:40:48.262Z,90
2023-01-04T09:41:34.285Z,90
2023-01-04T09:42:20.238Z,90
2023-01-04T09:43:20.204Z,90
2023-01-04T09:43:52.311Z,90
2023-01-04T09:45:21.455Z,90
2023-01-04T09:46:10.360Z,90
2023-01-04T09:46:56.433Z,90
2023-01-04T09:47:42.283Z,89
2023-01-04T09:48:28.274Z,89
2023-01-04T09:49:14.359Z,89
2023-01-04T09:50:00.362Z,89
2023-01-04T09:50:46.300Z,89
2023-01-04T09:51:32.291Z,89
2023-01-04T09:52:18.831Z,89
2023-01-04T09:53:04.326Z,89
2023-01-04T09:53:50.303Z,89
2023-01-04T09:54:36.387Z,89
2023-01-04T09:55:37.374Z,89
2023-01-04T09:56:08.371Z,89
2023-01-04T09:56:54.309Z,89
2023-01-04T09:57:40.356Z,89
2023-01-04T09:58:26.331Z,89
2023-01-04T09:59:12.389Z,89
2023-01-04T09:59:58.316Z,89
2023-01-04T10:00:44.543Z,89
2023-01-04T10:01:30.455Z,89
2023-01-04T10:02:16.553Z,89
2023-01-04T10:03:02.593Z,89
2023-01-04T10:03:48.523Z,89
2023-01-04T10:04:34.449Z,89
2023-01-04T10:05:20.328Z,89
2023-01-04T10:06:06.376Z,89
2023-01-04T10:06:52.324Z,89
2023-01-04T10:07:38.357Z,89
2023-01-04T10:08:24.351Z,89
2023-01-04T10:09:10.414Z,89
2023-01-04T10:09:56.348Z,89
2023-01-04T10:10:42.322Z,89
2023-01-04T10:11:28.362Z,89
2023-01-04T10:12:14.434Z,89
2023-01-04T10:13:00.414Z,89
2023-01-04T10:13:46.342Z,89
2023-01-04T10:14:32.368Z,89
2023-01-04T10:15:18.907Z,89
2023-01-04T10:16:04.469Z,89
2023-01-04T10:17:13.645Z,89
2023-01-04T10:18:33.912Z,89
2023-01-04T10:21:23.294Z,89
2023-01-04T10:22:12.424Z,89
2023-01-04T10:22:58.371Z,89
2023-01-04T10:23:44.404Z,89
2023-01-04T10:24:30.372Z,89
2023-01-04T10:25:16.424Z,89
2023-01-04T10:26:02.377Z,89
2023-01-04T10:26:48.501Z,89
2023-01-04T10:27:40.889Z,89
2023-01-04T10:28:20.453Z,89
2023-01-04T10:29:06.488Z,89
2023-01-04T10:29:52.448Z,89
2023-01-04T10:30:38.469Z,89
2023-01-04T10:31:40.075Z,89
2023-01-04T10:32:10.477Z,89
2023-01-04T10:32:56.447Z,89
2023-01-04T10:33:42.531Z,89
2023-01-04T10:34:28.400Z,89
2023-01-04T10:35:14.481Z,89
2023-01-04T10:36:00.545Z,89
2023-01-04T10:36:46.448Z,89
2023-01-04T10:37:32.398Z,89
2023-01-04T10:38:18.948Z,89
2023-01-04T10:39:04.468Z,89
2023-01-04T10:39:50.528Z,89
2023-01-04T10:40:36.480Z,89
2023-01-04T10:41:22.414Z,89
2023-01-04T10:42:08.495Z,89
2023-01-04T10:42:54.478Z,89
2023-01-04T10:44:11.967Z,89
2023-01-04T10:44:26.475Z,88
2023-01-04T10:45:12.513Z,88
2023-01-04T10:45:58.437Z,88
2023-01-04T10:46:44.529Z,88
2023-01-04T10:47:30.546Z,88
2023-01-04T10:48:16.519Z,88
2023-01-04T10:49:02.467Z,88
2023-01-04T10:49:48.568Z,88
2023-01-04T10:50:34.575Z,88
2023-01-04T10:51:20.460Z,88
2023-01-04T10:52:06.526Z,87
2023-01-04T10:52:52.475Z,87
2023-01-04T10:53:38.488Z,87
2023-01-04T10:54:24.457Z,87
2023-01-04T10:55:10.532Z,87
2023-01-04T10:56:24.058Z,87
2023-01-04T10:56:42.456Z,87
2023-01-04T10:57:28.528Z,87
2023-01-04T10:58:14.703Z,86
2023-01-04T10:59:00.547Z,86
2023-01-04T10:59:46.462Z,86